WetterOnline ( https://www.wetteronline.de )

Wetter aktuell Krosno

Aktuelles Wetter: Krosno (278m)

6-stündlich | Neueste Meldungen
Ortszeit Temperatur Wetter
Di, 28.01. 1:00 1.9° C bewölkt
Mo, 27.01. 19:00 2.0° C fast wolkenlos
Mo, 27.01. 13:00 4.4° C leicht bewölkt
Mo, 27.01. 7:00 -0.2° C leicht bewölkt
Mo, 27.01. 1:00 0.6° C bedeckt
So, 26.01. 19:00 -1.0° C wolkig
So, 26.01. 13:00 0.0° C leicht bewölkt
So, 26.01. 7:00 -2.5° C wolkig
Ortszeit Temperatur Wetter
Di, 28.01. 6:00 0.3° C bedeckt
Di, 28.01. 5:00 0.6° C bedeckt
Di, 28.01. 4:00 0.9° C bedeckt
Di, 28.01. 3:00 1.6° C bedeckt
Di, 28.01. 2:00 1.7° C bedeckt
Di, 28.01. 1:00 1.9° C bewölkt
Ortszeit Relative Feuchte Sichtweite
Di, 28.01. 1:00 89% 13 km
Mo, 27.01. 19:00 93% 7 km
Mo, 27.01. 13:00 74% 22 km
Mo, 27.01. 7:00 93% 5.0 km
Mo, 27.01. 1:00 92% 7 km
So, 26.01. 19:00 93% 7 km
So, 26.01. 13:00 83% 7 km
So, 26.01. 7:00 90% 5.0 km
Ortszeit Relative Feuchte Sichtweite
Di, 28.01. 6:00 90% 21 km
Di, 28.01. 5:00 90% 14 km
Di, 28.01. 4:00 90% 13 km
Di, 28.01. 3:00 89% 12 km
Di, 28.01. 2:00 89% 12 km
Di, 28.01. 1:00 89% 13 km
Ortszeit Niederschlagsmenge Niederschlagsart
Di, 28.01. 1:00 0.0 l/m2 in 6 Std. -
Mo, 27.01. 19:00 0.0 l/m2 in 12 Std. -
Mo, 27.01. 13:00 0.0 l/m2 in 6 Std. -
Mo, 27.01. 7:00 0.0 l/m2 in 12 Std. -
Mo, 27.01. 1:00 0.0 l/m2 in 6 Std. -
So, 26.01. 19:00 0.0 l/m2 in 12 Std. -
So, 26.01. 13:00 0.0 l/m2 in 6 Std. -
So, 26.01. 7:00 0.0 l/m2 in 12 Std. -
Ortszeit Niederschlagsmenge Niederschlagsart
Di, 28.01. 6:00 keine Meldung -
Di, 28.01. 5:00 keine Meldung -
Di, 28.01. 4:00 keine Meldung -
Di, 28.01. 3:00 keine Meldung -
Di, 28.01. 2:00 keine Meldung -
Di, 28.01. 1:00 keine Meldung -
Ortszeit Stärke Spitze Richtung
km/h Bft. km/h Grad Sektor
Di, 28.01. 1:00 7 2 - 160° S
Mo, 27.01. 19:00 7 2 - 140° SO
Mo, 27.01. 13:00 11 2 - 190° S
Mo, 27.01. 7:00 7 2 36 180° S
Mo, 27.01. 1:00 11 2 - 190° S
So, 26.01. 19:00 11 2 - 200° S
So, 26.01. 13:00 14 3 - 200° S
So, 26.01. 7:00 11 2 - 190° S
Ortszeit Stärke Spitze Richtung
km/h Bft. km/h Grad Sektor
Di, 28.01. 6:00 14 3 - 170° S
Di, 28.01. 5:00 14 3 - 180° S
Di, 28.01. 4:00 11 2 43 160° S
Di, 28.01. 3:00 25 4 43 180° S
Di, 28.01. 2:00 14 3 - 170° S
Di, 28.01. 1:00 7 2 - 160° S
Ortszeit Untergrenze Bedeckung Gattung
total tief tief mittel hoch
Di, 28.01. 1:00 270 m 7/8 7/8 Sc - -
Mo, 27.01. 19:00 - 1/8 1/8 - Ac -
Mo, 27.01. 13:00 - 6/8 1/8 Sc Ac Ci
Mo, 27.01. 7:00 - 3/8 1/8 Sc Ac Ci
Mo, 27.01. 1:00 210 m 8/8 8/8 St - -
So, 26.01. 19:00 - 7/8 4/8 Sc - Ci
So, 26.01. 13:00 330 m 6/8 1/8 Sc - Cs
So, 26.01. 7:00 270 m 7/8 3/8 St - Cs
Ortszeit Bedeckungsgrad in Achtel und Wolkenuntergrenze
Di, 28.01. 6:00 8(240m)
Di, 28.01. 5:00 8(210m)
Di, 28.01. 4:00 8(210m)
Di, 28.01. 3:00 8(240m)
Di, 28.01. 2:00 8(270m)
Di, 28.01. 1:00 7(270m)
Ortszeit Luftdruck NN (hPa) Tendenz (hPa in 3 Std.)
Di, 28.01. 1:00 1013 - 1,8
Mo, 27.01. 19:00 1016 - 0,6
Mo, 27.01. 13:00 1017 - 1,1
Mo, 27.01. 7:00 1019 - 0,5
Mo, 27.01. 1:00 1020 - 0,8
So, 26.01. 19:00 1022 - 0,3
So, 26.01. 13:00 1022 - 1,1
So, 26.01. 7:00 1024 + 0,3
Ortszeit Luftdruck NN (hPa) Tendenz (hPa in 3 Std.)
Di, 28.01. 6:00 1011 - 1,3
Di, 28.01. 5:00 1011 - 1,7
Di, 28.01. 4:00 1012 - 1,6
Di, 28.01. 3:00 1012 - 2,0
Di, 28.01. 2:00 1013 - 1,3
Di, 28.01. 1:00 1013 - 1,8
Ortszeit Schneehöhe (cm)
Di, 28.01. 1:00 -
Mo, 27.01. 19:00 -
Mo, 27.01. 13:00 -
Mo, 27.01. 7:00 -
Mo, 27.01. 1:00 -
So, 26.01. 19:00 -
So, 26.01. 13:00 -
So, 26.01. 7:00 -
Ortszeit Schneehöhe (cm)
Di, 28.01. 6:00 -
Di, 28.01. 5:00 -
Di, 28.01. 4:00 -
Di, 28.01. 3:00 -
Di, 28.01. 2:00 -
Di, 28.01. 1:00 -
Link zu dieser Seite / Seite empfehlen

Das Wetter in ...